Time;durP1;ratioP1;P1;durP2;ratioP2;P2;SDS_P1;SDS_P2;PMS_P1;PMS_P2;Temp;Humidity;BMP_temperature;BMP_pressure;BME280_temperature;BME280_humidity;BME280_pressure;Samples;Min_cycle;Max_cycle;Signal;HPM_P1;HPM_P2
2022/06/05 00:03:48;;;;;;;3.35;3.05;;;;;;;;;;10236915;28;20048;-63
2022/06/05 00:08:52;;;;;;;4.27;3.00;;;;;;;;;;10236678;28;20050;-62
2022/06/05 00:13:52;;;;;;;3.92;2.85;;;;;;;;;;10236560;28;20045;-63
2022/06/05 00:18:51;;;;;;;6.75;3.30;;;;;;;;;;10236224;28;20075;-62
2022/06/05 00:23:52;;;;;;;4.50;3.25;;;;;;;;;;10236245;28;20052;-63
2022/06/05 00:28:55;;;;;;;6.40;3.20;;;;;;;;;;10235202;28;20057;-62
2022/06/05 00:33:53;;;;;;;4.80;3.45;;;;;;;;;;10236472;28;20069;-63
2022/06/05 00:38:57;;;;;;;5.32;3.53;;;;;;;;;;10235545;28;20526;-63
2022/06/05 00:43:56;;;;;;;4.75;3.10;;;;;;;;;;10235675;28;20540;-62
2022/06/05 00:48:54;;;;;;;4.00;2.72;;;;;;;;;;10247649;28;20048;-63
2022/06/05 00:53:54;;;;;;;5.03;3.35;;;;;;;;;;10235548;28;20518;-63
2022/06/05 00:58:52;;;;;;;6.20;2.90;;;;;;;;;;10235669;28;20100;-63
2022/06/05 01:03:51;;;;;;;6.35;3.75;;;;;;;;;;10234791;28;20041;-62
2022/06/05 01:08:49;;;;;;;3.47;3.17;;;;;;;;;;10240549;28;20479;-62
2022/06/05 01:13:55;;;;;;;7.88;3.55;;;;;;;;;;10243184;28;20081;-62
2022/06/05 01:18:58;;;;;;;3.58;3.15;;;;;;;;;;10234832;28;20465;-63
2022/06/05 01:24:04;;;;;;;4.63;3.55;;;;;;;;;;10239928;28;20061;-63
2022/06/05 01:29:06;;;;;;;5.68;3.20;;;;;;;;;;10243414;28;20084;-62
2022/06/05 01:34:11;;;;;;;3.90;3.33;;;;;;;;;;10234851;28;20049;-62
2022/06/05 01:39:11;;;;;;;4.00;3.65;;;;;;;;;;10237162;28;20050;-63
2022/06/05 01:44:14;;;;;;;5.30;3.45;;;;;;;;;;10242522;28;20049;-63
2022/06/05 01:49:15;;;;;;;3.75;3.35;;;;;;;;;;10242147;28;20399;-63
2022/06/05 01:54:16;;;;;;;4.80;3.25;;;;;;;;;;10241982;28;20077;-62
2022/06/05 01:59:17;;;;;;;7.68;3.75;;;;;;;;;;10242204;28;20073;-62
2022/06/05 02:04:18;;;;;;;4.97;3.95;;;;;;;;;;10242005;28;20053;-63
2022/06/05 02:09:19;;;;;;;6.00;4.03;;;;;;;;;;10242294;28;20077;-63
2022/06/05 02:14:19;;;;;;;6.70;3.50;;;;;;;;;;10241225;28;20497;-63
2022/06/05 02:19:20;;;;;;;7.05;3.97;;;;;;;;;;10241222;28;20081;-63
2022/06/05 02:24:18;;;;;;;3.72;2.97;;;;;;;;;;10240893;28;20069;-63
2022/06/05 02:29:18;;;;;;;4.95;3.47;;;;;;;;;;10241363;28;20065;-63
2022/06/05 02:34:22;;;;;;;4.78;3.80;;;;;;;;;;10251833;28;20061;-63
2022/06/05 02:39:25;;;;;;;5.38;4.45;;;;;;;;;;10239915;28;20089;-62
2022/06/05 02:44:30;;;;;;;;;;;;;;;;;;10240547;28;20072;-62
2022/06/05 02:49:32;;;;;;;4.75;3.47;;;;;;;;;;10239002;28;20028;-63
2022/06/05 02:54:31;;;;;;;4.47;3.67;;;;;;;;;;10239750;28;20080;-62
2022/06/05 02:59:29;;;;;;;6.20;3.85;;;;;;;;;;10239575;28;20077;-62
2022/06/05 03:04:28;;;;;;;5.70;3.45;;;;;;;;;;10239686;28;20516;-63
2022/06/05 03:09:28;;;;;;;7.13;3.70;;;;;;;;;;10239193;28;20041;-62
2022/06/05 03:14:26;;;;;;;6.65;4.65;;;;;;;;;;10239112;28;20042;-62
2022/06/05 03:19:25;;;;;;;6.82;4.25;;;;;;;;;;10238681;28;20080;-62
2022/06/05 03:24:23;;;;;;;6.05;4.25;;;;;;;;;;10238659;28;20471;-62
2022/06/05 03:29:23;;;;;;;4.03;3.65;;;;;;;;;;10238458;28;20054;-63
2022/06/05 03:34:21;;;;;;;4.18;3.78;;;;;;;;;;10237880;28;20060;-62
2022/06/05 03:39:20;;;;;;;4.65;4.25;;;;;;;;;;10277766;28;20087;-63
2022/06/05 03:44:18;;;;;;;4.63;4.18;;;;;;;;;;10278386;28;20076;-63
2022/06/05 03:49:18;;;;;;;5.57;4.10;;;;;;;;;;10277348;28;20044;-63
2022/06/05 03:54:16;;;;;;;6.55;4.75;;;;;;;;;;10277433;28;20041;-62
2022/06/05 03:59:14;;;;;;;5.63;3.95;;;;;;;;;;10273942;28;20072;-63
2022/06/05 04:04:12;;;;;;;6.05;4.65;;;;;;;;;;10276325;28;20485;-62
2022/06/05 04:09:13;;;;;;;4.68;4.20;;;;;;;;;;10269243;28;20077;-63
2022/06/05 04:14:11;;;;;;;4.75;4.20;;;;;;;;;;10242504;28;20053;-63
2022/06/05 04:19:10;;;;;;;11.93;5.90;;;;;;;;;;10236174;28;20099;-62
2022/06/05 04:24:11;;;;;;;5.00;4.50;;;;;;;;;;10234427;28;20069;-62
2022/06/05 04:29:11;;;;;;;10.38;5.20;;;;;;;;;;10231154;28;20100;-63
2022/06/05 04:34:11;;;;;;;5.80;4.30;;;;;;;;;;10234589;28;20065;-63
2022/06/05 04:39:09;;;;;;;5.03;4.53;;;;;;;;;;10231973;28;20069;-63
2022/06/05 04:44:08;;;;;;;5.72;4.72;;;;;;;;;;10234535;28;20073;-63
2022/06/05 04:49:08;;;;;;;7.82;4.95;;;;;;;;;;10234626;28;20057;-63
2022/06/05 04:54:07;;;;;;;7.43;4.53;;;;;;;;;;10235248;28;20041;-63
2022/06/05 04:59:05;;;;;;;5.10;4.53;;;;;;;;;;10235740;28;20517;-63
2022/06/05 05:04:07;;;;;;;7.82;5.13;;;;;;;;;;10235172;28;20045;-63
2022/06/05 05:09:07;;;;;;;7.60;5.30;;;;;;;;;;10236604;28;20073;-62
2022/06/05 05:14:05;;;;;;;7.63;5.05;;;;;;;;;;10237478;28;20048;-63
2022/06/05 05:19:03;;;;;;;8.52;4.63;;;;;;;;;;10243372;28;20081;-63
2022/06/05 05:24:02;;;;;;;7.00;5.57;;;;;;;;;;10243257;28;20402;-63
2022/06/05 05:29:02;;;;;;;5.93;5.30;;;;;;;;;;10243178;28;20081;-63
2022/06/05 05:34:01;;;;;;;10.77;5.80;;;;;;;;;;10242701;28;20498;-63
2022/06/05 05:44:16;;;;;;;7.38;6.22;;;;;;;;;;10242629;28;20049;-63
2022/06/05 05:49:15;;;;;;;6.57;5.30;;;;;;;;;;10264824;28;20141;-63
2022/06/05 05:54:13;;;;;;;5.85;5.20;;;;;;;;;;10282645;28;20072;-63
2022/06/05 05:59:12;;;;;;;12.07;6.00;;;;;;;;;;10259938;28;20487;-63
2022/06/05 06:04:11;;;;;;;8.52;5.55;;;;;;;;;;10248158;28;20049;-64
2022/06/05 06:09:10;;;;;;;9.07;5.82;;;;;;;;;;10245054;28;20067;-63
2022/06/05 06:14:08;;;;;;;6.30;5.70;;;;;;;;;;10276622;28;20076;-63
2022/06/05 06:19:06;;;;;;;9.65;6.05;;;;;;;;;;10270741;28;20073;-63
2022/06/05 06:24:06;;;;;;;8.15;6.07;;;;;;;;;;10277494;28;20092;-62
2022/06/05 06:29:04;;;;;;;9.32;6.38;;;;;;;;;;10277325;28;20502;-64
2022/06/05 06:34:02;;;;;;;10.38;6.43;;;;;;;;;;10277614;28;20067;-64
2022/06/05 06:39:02;;;;;;;9.65;6.88;;;;;;;;;;10254479;28;20475;-64
2022/06/05 07:19:44;;;;;;;10.13;7.60;;;;;;;;;;10265470;27;1430307;-62
2022/06/05 07:24:42;;;;;;;8.48;7.00;;;;;;;;;;10309725;28;20142;-65
2022/06/05 07:29:41;;;;;;;8.57;7.50;;;;;;;;;;10309324;28;20053;-66
2022/06/05 07:34:39;;;;;;;9.73;7.15;;;;;;;;;;10309508;28;20564;-65
2022/06/05 07:39:43;;;;;;;10.25;7.45;;;;;;;;;;10309424;28;20041;-66
2022/06/05 07:44:42;;;;;;;7.70;6.68;;;;;;;;;;10308450;28;20075;-65
2022/06/05 07:49:40;;;;;;;11.75;8.93;;;;;;;;;;10305775;28;20461;-66
2022/06/05 07:54:39;;;;;;;9.27;8.35;;;;;;;;;;10308772;28;20509;-66
2022/06/05 07:59:39;;;;;;;8.65;6.93;;;;;;;;;;10308604;28;20045;-66
2022/06/05 08:04:38;;;;;;;7.20;6.28;;;;;;;;;;10307594;28;20057;-66
2022/06/05 08:09:36;;;;;;;12.65;8.93;;;;;;;;;;10308045;28;20040;-65
2022/06/05 08:14:35;;;;;;;8.75;7.28;;;;;;;;;;10307876;28;20045;-65
2022/06/05 08:19:36;;;;;;;7.18;6.22;;;;;;;;;;10287010;28;20060;-66
2022/06/05 08:24:35;;;;;;;9.57;7.13;;;;;;;;;;10280775;28;20052;-66
2022/06/05 08:29:39;;;;;;;12.32;6.85;;;;;;;;;;10280782;28;20048;-66
2022/06/05 08:34:39;;;;;;;10.07;6.38;;;;;;;;;;10280449;28;20056;-65
2022/06/05 08:44:58;;;;;;;10.30;6.35;;;;;;;;;;10279562;28;20474;-67
2022/06/05 08:50:03;;;;;;;6.40;5.80;;;;;;;;;;10278704;28;20053;-67
2022/06/05 08:55:05;;;;;;;9.18;6.07;;;;;;;;;;10279572;28;20045;-66
2022/06/05 09:00:06;;;;;;;9.38;6.88;;;;;;;;;;10279723;28;20045;-65
2022/06/05 09:05:08;;;;;;;6.95;6.25;;;;;;;;;;10279268;28;20037;-66
2022/06/05 09:10:08;;;;;;;13.57;6.63;;;;;;;;;;10279305;28;20048;-64
2022/06/05 09:15:14;;;;;;;10.38;5.18;;;;;;;;;;10278779;28;20045;-63
2022/06/05 09:20:16;;;;;;;8.10;5.15;;;;;;;;;;10278967;28;20041;-63
2022/06/05 09:25:32;;;;;;;6.90;5.15;;;;;;;;;;10278020;28;20117;-62
2022/06/05 09:30:32;;;;;;;8.27;5.65;;;;;;;;;;10277534;28;20049;-62
2022/06/05 09:35:36;;;;;;;9.75;5.82;;;;;;;;;;10278095;28;20414;-62
2022/06/05 09:40:34;;;;;;;;;;;;;;;;;;10278704;28;20459;-63
2022/06/05 09:45:41;;;;;;;11.38;5.75;;;;;;;;;;10277798;28;19920;-64
2022/06/05 09:50:41;;;;;;;8.27;6.53;;;;;;;;;;10276737;28;20044;-64
2022/06/05 09:55:44;;;;;;;9.52;5.75;;;;;;;;;;10275107;28;20049;-64
2022/06/05 10:00:47;;;;;;;8.90;5.85;;;;;;;;;;10256985;28;20044;-64
2022/06/05 10:06:06;;;;;;;14.40;6.43;;;;;;;;;;10274597;28;20091;-64
2022/06/05 10:11:09;;;;;;;6.88;6.18;;;;;;;;;;10249297;28;20084;-65
2022/06/05 10:16:10;;;;;;;7.18;6.00;;;;;;;;;;10273823;28;20095;-63
2022/06/05 10:21:11;;;;;;;10.35;7.68;;;;;;;;;;10268310;28;20048;-64
2022/06/05 10:26:20;;;;;;;8.80;6.68;;;;;;;;;;10270149;28;20073;-64
2022/06/05 10:31:24;;;;;;;6.88;5.90;;;;;;;;;;10269130;28;20061;-64
2022/06/05 10:36:26;;;;;;;8.85;7.25;;;;;;;;;;10275126;28;20077;-63
2022/06/05 10:41:27;;;;;;;9.73;6.78;;;;;;;;;;10276068;28;20518;-61
2022/06/05 10:46:27;;;;;;;12.68;7.97;;;;;;;;;;10275326;28;20041;-61
2022/06/05 10:51:32;;;;;;;7.35;6.13;;;;;;;;;;10274811;28;20532;-61
2022/06/05 10:56:35;;;;;;;7.05;6.35;;;;;;;;;;10275683;28;20080;-60
2022/06/05 11:01:42;;;;;;;7.47;6.20;;;;;;;;;;10275659;28;20073;-60
2022/06/05 11:06:45;;;;;;;7.68;6.03;;;;;;;;;;10275672;28;20053;-60
2022/06/05 11:17:06;;;;;;;10.65;6.03;;;;;;;;;;10275340;28;20088;-60
2022/06/05 11:22:12;;;;;;;12.60;5.60;;;;;;;;;;10274589;28;20076;-60
2022/06/05 11:27:14;;;;;;;11.60;6.30;;;;;;;;;;10274177;28;20076;-61
2022/06/05 11:32:19;;;;;;;7.90;6.00;;;;;;;;;;10274807;28;20086;-61
2022/06/05 11:37:29;;;;;;;7.55;5.68;;;;;;;;;;10275027;28;20421;-60
2022/06/05 11:42:30;;;;;;;6.85;6.15;;;;;;;;;;10274630;28;20048;-61
2022/06/05 11:47:32;;;;;;;9.70;6.45;;;;;;;;;;10275023;28;20053;-62
2022/06/05 11:52:36;;;;;;;11.25;6.22;;;;;;;;;;10276845;28;20130;-62
2022/06/05 11:57:37;;;;;;;6.35;5.10;;;;;;;;;;10282142;28;20084;-61
2022/06/05 12:02:51;;;;;;;8.80;5.50;;;;;;;;;;10281141;28;20459;-61
2022/06/05 12:07:51;;;;;;;6.05;5.43;;;;;;;;;;10278649;28;20076;-62
2022/06/05 12:12:56;;;;;;;11.23;5.47;;;;;;;;;;10278965;28;20065;-61
2022/06/05 12:18:00;;;;;;;10.55;6.13;;;;;;;;;;10280068;28;20083;-63
2022/06/05 12:23:02;;;;;;;7.65;5.20;;;;;;;;;;10279705;28;20072;-62
2022/06/05 12:28:03;;;;;;;5.97;5.38;;;;;;;;;;10279035;28;20076;-62
2022/06/05 12:33:05;;;;;;;8.80;5.30;;;;;;;;;;10277874;28;20068;-61
2022/06/05 12:38:14;;;;;;;6.95;5.47;;;;;;;;;;10279410;28;20072;-61
2022/06/05 12:43:16;;;;;;;9.27;5.93;;;;;;;;;;10279290;28;20045;-60
2022/06/05 12:48:17;;;;;;;7.72;5.80;;;;;;;;;;10280755;28;20437;-61
2022/06/05 12:53:25;;;;;;;12.55;5.70;;;;;;;;;;10280683;28;20052;-61
2022/06/05 12:58:29;;;;;;;8.60;5.38;;;;;;;;;;10279883;28;20518;-61
2022/06/05 13:03:31;;;;;;;12.25;5.38;;;;;;;;;;10279458;28;20053;-61
2022/06/05 13:08:37;;;;;;;8.50;6.22;;;;;;;;;;10280386;28;20466;-60
2022/06/05 13:13:40;;;;;;;6.82;5.30;;;;;;;;;;10280211;28;20450;-61
2022/06/05 13:18:42;;;;;;;7.03;4.80;;;;;;;;;;10289521;28;20148;-61
2022/06/05 13:23:46;;;;;;;11.60;5.70;;;;;;;;;;10312572;28;20080;-62
2022/06/05 13:28:48;;;;;;;7.60;4.68;;;;;;;;;;10306432;28;20178;-62
2022/06/05 13:33:50;;;;;;;8.27;4.32;;;;;;;;;;10281621;28;20139;-62
2022/06/05 13:38:53;;;;;;;8.15;5.20;;;;;;;;;;10316693;28;20076;-61
2022/06/05 13:43:57;;;;;;;8.38;6.38;;;;;;;;;;10309002;28;20280;-62
2022/06/05 13:49:20;;;;;;;9.43;4.17;;;;;;;;;;10257791;28;20519;-61
2022/06/05 13:54:22;;;;;;;6.95;4.65;;;;;;;;;;10283971;28;20087;-61
2022/06/05 13:59:24;;;;;;;9.50;3.65;;;;;;;;;;10296189;28;20744;-61
2022/06/05 14:04:23;;;;;;;6.90;3.80;;;;;;;;;;10255910;28;20049;-61
2022/06/05 14:09:36;;;;;;;4.82;3.88;;;;;;;;;;10275818;28;20041;-60
2022/06/05 14:14:39;;;;;;;7.57;3.67;;;;;;;;;;10296763;28;20076;-60
2022/06/05 14:19:39;;;;;;;4.13;3.72;;;;;;;;;;10237199;28;20096;-61
2022/06/05 14:24:39;;;;;;;10.00;5.88;;;;;;;;;;10234077;28;20077;-60
2022/06/05 14:29:39;;;;;;;6.72;3.70;;;;;;;;;;10244343;28;20072;-61
2022/06/05 14:34:39;;;;;;;6.43;4.45;;;;;;;;;;10259457;28;20077;-61
2022/06/05 14:39:40;;;;;;;5.70;3.97;;;;;;;;;;10233015;28;20091;-61
2022/06/05 14:44:41;;;;;;;7.70;5.38;;;;;;;;;;10239680;28;20072;-61
2022/06/05 14:49:41;;;;;;;14.30;4.70;;;;;;;;;;10233146;28;20057;-61
2022/06/05 15:00:03;;;;;;;16.63;6.90;;;;;;;;;;10197663;28;20068;-60
2022/06/05 15:05:04;;;;;;;5.97;5.38;;;;;;;;;;10233095;28;20057;-59
2022/06/05 15:10:06;;;;;;;8.52;5.40;;;;;;;;;;10213159;28;20467;-61
2022/06/05 15:15:07;;;;;;;6.70;5.30;;;;;;;;;;10216422;28;20041;-60
2022/06/05 15:20:07;;;;;;;5.57;4.63;;;;;;;;;;10274944;28;20049;-60
2022/06/05 15:25:13;;;;;;;6.57;4.75;;;;;;;;;;10266943;28;20088;-60
2022/06/05 15:30:18;;;;;;;9.25;4.35;;;;;;;;;;10277343;28;20033;-60
2022/06/05 15:35:20;;;;;;;4.75;4.25;;;;;;;;;;10277243;28;20071;-61
2022/06/05 15:40:28;;;;;;;5.85;4.07;;;;;;;;;;10269401;28;20545;-61
2022/06/05 15:45:30;;;;;;;5.32;4.45;;;;;;;;;;10243266;28;20077;-61
2022/06/05 15:50:33;;;;;;;11.35;5.38;;;;;;;;;;10253561;28;20415;-61
2022/06/05 15:55:38;;;;;;;6.15;5.15;;;;;;;;;;10277861;28;20087;-61
2022/06/05 16:00:40;;;;;;;8.20;5.00;;;;;;;;;;10273708;28;20073;-60
2022/06/05 16:05:41;;;;;;;5.72;4.65;;;;;;;;;;10280783;28;20111;-61
2022/06/05 16:10:45;;;;;;;11.15;5.47;;;;;;;;;;10281720;28;20075;-61
2022/06/05 16:15:48;;;;;;;9.13;5.60;;;;;;;;;;10279980;28;20048;-61
2022/06/05 16:20:56;;;;;;;5.57;4.45;;;;;;;;;;10280108;28;20084;-61
2022/06/05 16:25:59;;;;;;;27.83;7.15;;;;;;;;;;10280006;28;20049;-61
2022/06/05 16:31:12;;;;;;;14.95;6.53;;;;;;;;;;10281086;28;20414;-62
2022/06/05 16:41:43;;;;;;;7.30;5.88;;;;;;;;;;10280066;28;20056;-62
2022/06/05 16:46:42;;;;;;;11.80;5.97;;;;;;;;;;10278885;28;20057;-63
2022/06/05 16:52:01;;;;;;;11.05;4.32;;;;;;;;;;10280274;28;20053;-61
2022/06/05 16:57:23;;;;;;;8.23;5.43;;;;;;;;;;10279639;28;20052;-61
2022/06/05 17:02:23;;;;;;;5.20;4.70;;;;;;;;;;10259726;28;20115;-61
2022/06/05 17:07:23;;;;;;;12.63;5.13;;;;;;;;;;10279123;28;20052;-60
2022/06/05 17:12:32;;;;;;;14.10;5.68;;;;;;;;;;10278625;28;20383;-60
2022/06/05 17:17:40;;;;;;;13.68;6.13;;;;;;;;;;10277935;28;20048;-60
2022/06/05 17:22:40;;;;;;;7.57;4.75;;;;;;;;;;10278819;28;20624;-60
2022/06/05 17:27:45;;;;;;;15.02;5.97;;;;;;;;;;10278170;28;20056;-60
2022/06/05 17:32:50;;;;;;;12.63;6.03;;;;;;;;;;10278488;28;20057;-59
2022/06/05 17:37:57;;;;;;;11.63;5.70;;;;;;;;;;10277801;28;20045;-60
2022/06/05 17:42:59;;;;;;;11.55;5.88;;;;;;;;;;10278931;28;20465;-59
2022/06/05 17:48:06;;;;;;;8.27;5.60;;;;;;;;;;10277595;28;20048;-60
2022/06/05 17:53:05;;;;;;;8.20;5.50;;;;;;;;;;10276518;28;20064;-60
2022/06/05 17:58:11;;;;;;;9.13;5.93;;;;;;;;;;10277075;28;20154;-60
2022/06/05 18:03:15;;;;;;;9.02;6.35;;;;;;;;;;10277721;28;20461;-59
2022/06/05 18:08:14;;;;;;;9.20;5.70;;;;;;;;;;10277215;28;20052;-59
2022/06/05 18:13:15;;;;;;;9.40;6.70;;;;;;;;;;10277609;28;20045;-59
2022/06/05 18:18:17;;;;;;;16.45;8.35;;;;;;;;;;10275227;28;20057;-60
2022/06/05 18:23:17;;;;;;;9.27;6.80;;;;;;;;;;10277112;28;20080;-59
2022/06/05 18:28:18;;;;;;;13.77;6.57;;;;;;;;;;10276742;28;20044;-60
2022/06/05 18:33:25;;;;;;;10.38;6.57;;;;;;;;;;10275641;28;20436;-60
2022/06/05 18:38:25;;;;;;;12.55;7.07;;;;;;;;;;10275778;28;20049;-60
2022/06/05 18:43:27;;;;;;;11.13;5.95;;;;;;;;;;10274596;28;20571;-59
2022/06/05 18:48:28;;;;;;;9.57;6.65;;;;;;;;;;10276445;28;20076;-59
2022/06/05 18:53:28;;;;;;;6.53;5.35;;;;;;;;;;10276358;28;20057;-58
2022/06/05 18:58:32;;;;;;;6.95;5.03;;;;;;;;;;10276261;28;20045;-59
2022/06/05 19:03:33;;;;;;;8.45;5.75;;;;;;;;;;10274286;28;20159;-60
2022/06/05 19:08:32;;;;;;;6.35;5.75;;;;;;;;;;10275181;28;20060;-60
2022/06/05 19:13:41;;;;;;;7.13;5.88;;;;;;;;;;10275729;28;20057;-59
2022/06/05 19:18:44;;;;;;;8.73;6.10;;;;;;;;;;10274903;28;20511;-59
2022/06/05 19:23:57;;;;;;;8.35;5.05;;;;;;;;;;10274401;28;20080;-59
2022/06/05 19:28:58;;;;;;;5.63;4.50;;;;;;;;;;10275686;28;20076;-62
2022/06/05 19:34:00;;;;;;;6.32;4.93;;;;;;;;;;10275622;28;20044;-62
2022/06/05 19:38:59;;;;;;;6.65;4.82;;;;;;;;;;10275590;28;20041;-62
2022/06/05 19:44:01;;;;;;;5.90;5.32;;;;;;;;;;10256194;28;20049;-62
2022/06/05 19:49:14;;;;;;;11.88;5.75;;;;;;;;;;10274297;28;20053;-62
2022/06/05 19:54:21;;;;;;;5.63;5.10;;;;;;;;;;10275079;28;20044;-62
2022/06/05 19:59:20;;;;;;;7.15;4.30;;;;;;;;;;10256005;28;20052;-61
2022/06/05 20:04:23;;;;;;;6.80;4.90;;;;;;;;;;10272734;28;20041;-62
2022/06/05 20:09:23;;;;;;;8.17;6.33;;;;;;;;;;10273720;28;20500;-62
2022/06/05 20:14:24;;;;;;;8.50;5.10;;;;;;;;;;10276459;28;20327;-62
2022/06/05 20:19:28;;;;;;;5.70;5.10;;;;;;;;;;10280750;28;20068;-62
2022/06/05 20:24:29;;;;;;;8.05;5.25;;;;;;;;;;10279444;28;20056;-62
2022/06/05 20:29:30;;;;;;;11.93;5.20;;;;;;;;;;10278966;28;20061;-62
2022/06/05 20:34:49;;;;;;;7.30;4.90;;;;;;;;;;10278421;28;20072;-63
2022/06/05 20:39:49;;;;;;;7.38;6.03;;;;;;;;;;10277519;28;20076;-62
2022/06/05 20:44:59;;;;;;;6.07;5.47;;;;;;;;;;10279880;28;20379;-63
2022/06/05 20:50:03;;;;;;;11.43;4.95;;;;;;;;;;10279930;28;20072;-63
2022/06/05 20:55:02;;;;;;;7.30;6.22;;;;;;;;;;10279727;28;20045;-64
2022/06/05 21:00:00;;;;;;;6.78;6.18;;;;;;;;;;10279457;28;20094;-62
2022/06/05 21:10:18;;;;;;;12.52;6.68;;;;;;;;;;10279316;28;20084;-62
2022/06/05 21:20:37;;;;;;;11.07;7.72;;;;;;;;;;10278921;28;20110;-63
2022/06/05 21:25:37;;;;;;;11.93;7.40;;;;;;;;;;10278936;28;20056;-62
2022/06/05 21:30:36;;;;;;;8.75;7.63;;;;;;;;;;10278356;28;20053;-63
2022/06/05 21:35:37;;;;;;;8.60;7.85;;;;;;;;;;10278339;28;20088;-62
2022/06/05 21:40:39;;;;;;;10.25;8.20;;;;;;;;;;10278065;28;20525;-63
2022/06/05 21:45:44;;;;;;;10.00;8.98;;;;;;;;;;10278191;28;20041;-63
2022/06/05 21:50:44;;;;;;;9.88;8.98;;;;;;;;;;10277889;28;20045;-62
2022/06/05 21:55:44;;;;;;;10.43;8.25;;;;;;;;;;10277827;28;20453;-62
2022/06/05 22:00:46;;;;;;;9.48;8.60;;;;;;;;;;10277579;28;20080;-61
2022/06/05 22:05:46;;;;;;;;;;;;;;;;;;10277868;28;20045;-63
2022/06/05 22:10:45;;;;;;;10.23;9.20;;;;;;;;;;10276976;28;19920;-63
2022/06/05 22:15:44;;;;;;;11.18;10.27;;;;;;;;;;10276713;28;20489;-63
2022/06/05 22:20:43;;;;;;;12.40;9.93;;;;;;;;;;10276230;28;20068;-63
2022/06/05 22:25:42;;;;;;;13.27;11.18;;;;;;;;;;10276064;28;20045;-62
2022/06/05 22:30:43;;;;;;;12.82;10.82;;;;;;;;;;10276023;28;20411;-63
2022/06/05 22:35:41;;;;;;;11.10;10.20;;;;;;;;;;10275931;28;20402;-62
2022/06/05 22:40:40;;;;;;;11.60;10.38;;;;;;;;;;10276022;28;20083;-62
2022/06/05 22:45:39;;;;;;;11.13;10.18;;;;;;;;;;10275911;28;20045;-63
2022/06/05 22:50:42;;;;;;;11.25;9.95;;;;;;;;;;10275717;28;20052;-63
2022/06/05 22:55:41;;;;;;;11.20;10.20;;;;;;;;;;10275629;28;20077;-62
2022/06/05 23:00:45;;;;;;;10.45;9.55;;;;;;;;;;10275517;28;20103;-63
2022/06/05 23:05:46;;;;;;;10.02;9.02;;;;;;;;;;10275480;28;20521;-63
2022/06/05 23:10:44;;;;;;;14.20;9.30;;;;;;;;;;10275367;28;20509;-61
2022/06/05 23:15:43;;;;;;;9.73;8.90;;;;;;;;;;10274885;28;20053;-63
2022/06/05 23:20:41;;;;;;;10.65;9.68;;;;;;;;;;10274712;28;20138;-63
2022/06/05 23:25:42;;;;;;;10.70;9.77;;;;;;;;;;10275020;28;20049;-62
2022/06/05 23:30:42;;;;;;;9.98;9.02;;;;;;;;;;10274995;28;20057;-62
2022/06/05 23:35:41;;;;;;;10.68;9.68;;;;;;;;;;10274859;28;20068;-62
2022/06/05 23:40:41;;;;;;;10.63;9.63;;;;;;;;;;10274742;28;20387;-62
2022/06/05 23:45:40;;;;;;;10.90;9.93;;;;;;;;;;10274711;28;20059;-62
2022/06/05 23:50:38;;;;;;;10.52;9.52;;;;;;;;;;10279694;28;20076;-62
2022/06/05 23:55:42;;;;;;;9.43;8.63;;;;;;;;;;10279584;28;20085;-63
